createdAt,value
2022-12-03T00:00:01.392Z,4.27
2022-12-03T00:01:01.316Z,5.10
2022-12-03T00:02:01.738Z,4.00
2022-12-03T00:03:01.400Z,4.17
2022-12-03T00:04:01.443Z,4.67
2022-12-03T00:05:00.960Z,5.43
2022-12-03T00:06:00.944Z,3.90
2022-12-03T00:07:01.286Z,6.20
2022-12-03T00:08:01.329Z,4.00
2022-12-03T00:09:01.329Z,4.20
2022-12-03T00:10:01.596Z,3.37
2022-12-03T00:11:00.921Z,4.13
2022-12-03T00:12:01.226Z,3.47
2022-12-03T00:13:00.926Z,5.20
2022-12-03T00:14:01.254Z,3.83
2022-12-03T00:15:01.282Z,3.53
2022-12-03T00:16:01.295Z,4.63
2022-12-03T00:17:01.218Z,3.67
2022-12-03T00:18:01.206Z,4.00
2022-12-03T00:19:00.957Z,3.87
2022-12-03T00:20:01.320Z,3.00
2022-12-03T00:21:01.891Z,3.00
2022-12-03T00:22:01.350Z,3.97
2022-12-03T00:23:00.942Z,4.27
2022-12-03T00:24:01.542Z,3.73
2022-12-03T00:25:01.256Z,3.00
2022-12-03T00:26:01.242Z,3.00
2022-12-03T00:27:01.673Z,3.57
2022-12-03T00:28:01.573Z,3.37
2022-12-03T00:29:01.396Z,3.80
2022-12-03T00:30:01.544Z,2.60
2022-12-03T00:31:01.019Z,4.07
2022-12-03T00:32:01.599Z,2.93
2022-12-03T00:33:01.219Z,4.30
2022-12-03T00:34:01.227Z,4.27
2022-12-03T00:35:01.511Z,4.60
2022-12-03T00:36:01.284Z,5.27
2022-12-03T00:37:01.231Z,5.33
2022-12-03T00:38:01.243Z,3.60
2022-12-03T00:39:02.008Z,4.87
2022-12-03T00:40:01.772Z,4.10
2022-12-03T00:41:01.712Z,5.03
2022-12-03T00:42:00.941Z,4.20
2022-12-03T00:43:01.583Z,4.97
2022-12-03T00:44:01.233Z,4.90
2022-12-03T00:45:00.974Z,5.50
2022-12-03T00:46:01.598Z,5.80
2022-12-03T00:47:01.749Z,4.77
2022-12-03T00:48:01.366Z,4.50
2022-12-03T00:49:01.227Z,5.50
2022-12-03T00:50:01.238Z,4.50
2022-12-03T00:51:01.230Z,3.83
2022-12-03T00:52:01.789Z,5.97
2022-12-03T00:53:01.243Z,5.67
2022-12-03T00:54:01.343Z,5.40
2022-12-03T00:55:00.976Z,4.60
2022-12-03T00:56:01.892Z,4.93
2022-12-03T00:57:01.237Z,5.93
2022-12-03T00:58:01.596Z,6.87
2022-12-03T00:59:01.236Z,6.67
2022-12-03T01:00:01.258Z,4.93
2022-12-03T01:01:02.092Z,6.47
2022-12-03T01:02:01.021Z,4.73
2022-12-03T01:03:01.129Z,5.10
2022-12-03T01:04:00.959Z,5.07
2022-12-03T01:05:01.467Z,6.00
2022-12-03T01:06:00.937Z,6.30
2022-12-03T01:07:00.953Z,5.00
2022-12-03T01:08:02.005Z,5.87
2022-12-03T01:09:01.277Z,7.83
2022-12-03T01:10:01.019Z,4.80
2022-12-03T01:11:01.260Z,5.93
2022-12-03T01:12:00.960Z,5.23
2022-12-03T01:13:00.929Z,5.40
2022-12-03T01:14:01.335Z,4.63
2022-12-03T01:15:00.962Z,5.13
2022-12-03T01:16:01.320Z,4.57
2022-12-03T01:17:01.227Z,6.03
2022-12-03T01:18:01.241Z,5.83
2022-12-03T01:19:02.173Z,4.93
2022-12-03T01:20:01.522Z,4.70
2022-12-03T01:21:00.921Z,5.73
2022-12-03T01:22:01.733Z,5.83
2022-12-03T01:23:01.318Z,5.40
2022-12-03T01:24:02.060Z,4.90
2022-12-03T01:25:01.718Z,5.13
2022-12-03T01:26:01.197Z,5.07
2022-12-03T01:27:01.120Z,5.33
2022-12-03T01:28:01.005Z,5.53
2022-12-03T01:29:01.425Z,5.57
2022-12-03T01:30:01.254Z,4.50
2022-12-03T01:31:01.278Z,4.40
2022-12-03T01:32:00.945Z,5.97
2022-12-03T01:33:00.916Z,5.57
2022-12-03T01:34:01.001Z,5.07
2022-12-03T01:35:01.599Z,4.27
2022-12-03T01:36:01.229Z,5.47
2022-12-03T01:37:00.937Z,4.47
2022-12-03T01:38:01.600Z,4.13
2022-12-03T01:39:01.907Z,6.40
2022-12-03T01:40:01.334Z,4.67
2022-12-03T01:41:02.626Z,4.97
2022-12-03T01:42:02.308Z,5.13
2022-12-03T01:43:01.122Z,5.43
2022-12-03T01:44:03.736Z,5.70
2022-12-03T01:45:02.175Z,5.77
2022-12-03T01:46:00.966Z,5.97
2022-12-03T01:47:04.287Z,5.03
2022-12-03T01:48:01.432Z,5.07
2022-12-03T01:49:01.197Z,5.67
2022-12-03T01:50:04.632Z,5.90
2022-12-03T01:51:01.541Z,5.37
2022-12-03T01:52:01.326Z,6.23
2022-12-03T01:53:02.891Z,5.83
2022-12-03T01:54:02.553Z,6.87
2022-12-03T01:55:04.263Z,6.30
2022-12-03T01:56:01.489Z,6.03
2022-12-03T01:57:01.299Z,6.57
2022-12-03T01:58:01.934Z,6.20
2022-12-03T01:59:01.298Z,6.63
2022-12-03T02:00:01.275Z,6.00
2022-12-03T02:01:05.595Z,5.00
2022-12-03T02:02:10.815Z,6.60
2022-12-03T02:03:07.977Z,5.50
2022-12-03T02:04:01.341Z,5.60
2022-12-03T02:05:06.478Z,6.10
2022-12-03T02:06:01.354Z,5.33
2022-12-03T02:07:20.908Z,6.10
2022-12-03T02:08:01.302Z,6.50
2022-12-03T02:09:00.961Z,7.23
2022-12-03T02:10:03.780Z,6.73
2022-12-03T02:11:04.516Z,6.33
2022-12-03T02:12:00.957Z,6.00
2022-12-03T02:13:04.334Z,7.20
2022-12-03T02:14:05.483Z,8.73
2022-12-03T02:15:02.307Z,6.57
2022-12-03T02:16:02.276Z,7.50
2022-12-03T02:17:01.347Z,7.00
2022-12-03T02:18:01.379Z,6.53
2022-12-03T02:19:02.188Z,7.63
2022-12-03T02:20:04.465Z,9.07
2022-12-03T02:21:10.316Z,6.83
2022-12-03T02:22:10.818Z,7.90
2022-12-03T02:23:12.691Z,7.83
2022-12-03T02:24:11.227Z,7.70
2022-12-03T02:25:06.294Z,9.20
2022-12-03T02:26:01.828Z,7.90
2022-12-03T02:27:01.287Z,6.23
2022-12-03T02:28:02.434Z,6.90
2022-12-03T02:29:01.427Z,6.30
2022-12-03T02:30:01.320Z,6.87
2022-12-03T02:31:01.305Z,6.73
2022-12-03T02:32:01.039Z,7.63
2022-12-03T02:33:02.374Z,6.63
2022-12-03T02:34:05.617Z,7.07
2022-12-03T02:35:00.931Z,7.00
2022-12-03T02:36:03.900Z,8.30
2022-12-03T02:37:02.890Z,7.87
2022-12-03T02:38:05.625Z,7.80
2022-12-03T02:39:01.541Z,6.77
2022-12-03T02:40:05.943Z,7.90
2022-12-03T02:41:05.767Z,8.03
2022-12-03T02:42:01.502Z,7.63
2022-12-03T02:43:03.284Z,8.50
2022-12-03T02:44:01.893Z,9.03
2022-12-03T02:45:05.939Z,8.13
2022-12-03T02:46:03.038Z,7.93
2022-12-03T02:47:01.658Z,7.80
2022-12-03T02:48:05.388Z,8.10
2022-12-03T02:49:01.980Z,8.53
2022-12-03T02:50:01.782Z,8.10
2022-12-03T02:51:05.502Z,7.30
2022-12-03T02:52:01.634Z,9.83
2022-12-03T02:53:04.591Z,8.80
2022-12-03T02:54:02.377Z,8.17
2022-12-03T02:55:04.140Z,7.10
2022-12-03T02:56:02.531Z,7.83
2022-12-03T02:57:01.737Z,8.23
2022-12-03T02:58:03.374Z,7.27
2022-12-03T02:59:04.309Z,8.23
2022-12-03T03:00:01.367Z,8.30
2022-12-03T03:01:03.245Z,7.30
2022-12-03T03:02:01.266Z,10.33
2022-12-03T03:03:04.035Z,8.00
2022-12-03T03:04:01.588Z,7.33
2022-12-03T03:05:02.707Z,8.70
2022-12-03T03:06:03.853Z,6.77
2022-12-03T03:07:00.937Z,8.17
2022-12-03T03:08:01.759Z,8.03
2022-12-03T03:09:01.961Z,9.03
2022-12-03T03:10:03.190Z,8.40
2022-12-03T03:11:02.011Z,7.83
2022-12-03T03:12:01.253Z,7.97
2022-12-03T03:13:03.053Z,7.20
2022-12-03T03:14:02.105Z,7.93
2022-12-03T03:15:01.246Z,9.10
2022-12-03T03:16:02.107Z,9.60
2022-12-03T03:17:01.445Z,9.30
2022-12-03T03:18:01.408Z,8.57
2022-12-03T03:19:01.334Z,9.07
2022-12-03T03:20:01.498Z,9.10
2022-12-03T03:21:01.515Z,9.73
2022-12-03T03:22:01.235Z,8.50
2022-12-03T03:23:05.151Z,8.37
2022-12-03T03:24:00.929Z,9.13
2022-12-03T03:25:01.582Z,8.73
2022-12-03T03:26:03.610Z,8.30
2022-12-03T03:27:01.006Z,9.17
2022-12-03T03:28:01.339Z,9.43
2022-12-03T03:29:00.987Z,8.70
2022-12-03T03:30:01.019Z,8.40
2022-12-03T03:31:03.592Z,8.77
2022-12-03T03:32:02.683Z,9.73
2022-12-03T03:33:01.357Z,7.97
2022-12-03T03:34:01.268Z,8.23
2022-12-03T03:35:02.544Z,10.23
2022-12-03T03:36:02.016Z,8.60
2022-12-03T03:37:01.352Z,8.37
2022-12-03T03:38:01.417Z,8.43
2022-12-03T03:39:02.894Z,8.63
2022-12-03T03:40:01.598Z,8.87
2022-12-03T03:41:05.203Z,8.47
2022-12-03T03:42:01.804Z,9.60
2022-12-03T03:43:01.839Z,9.00
2022-12-03T03:44:02.979Z,7.37
2022-12-03T03:45:01.561Z,9.83
2022-12-03T03:46:04.062Z,9.33
2022-12-03T03:47:01.912Z,8.63
2022-12-03T03:48:01.356Z,8.47
2022-12-03T03:49:02.384Z,8.17
2022-12-03T03:50:01.680Z,8.03
2022-12-03T03:51:02.230Z,9.40
2022-12-03T03:52:01.734Z,9.40
2022-12-03T03:53:03.262Z,10.27
2022-12-03T03:54:03.268Z,8.47
2022-12-03T03:55:01.466Z,9.33
2022-12-03T03:56:01.299Z,9.00
2022-12-03T03:57:01.553Z,8.63
2022-12-03T03:58:01.061Z,9.53
2022-12-03T03:59:01.937Z,9.67
2022-12-03T04:00:01.387Z,9.37
2022-12-03T04:01:01.756Z,8.53
2022-12-03T04:02:02.509Z,9.50
2022-12-03T04:03:03.050Z,10.27
2022-12-03T04:04:01.534Z,10.33
2022-12-03T04:05:02.099Z,8.07
2022-12-03T04:06:01.604Z,9.40
2022-12-03T04:07:01.560Z,10.30
2022-12-03T04:08:01.371Z,10.30
2022-12-03T04:09:00.942Z,8.90
2022-12-03T04:10:01.288Z,9.00
2022-12-03T04:11:00.962Z,10.20
2022-12-03T04:12:01.579Z,7.23
2022-12-03T04:13:01.131Z,8.83
2022-12-03T04:14:01.787Z,7.27
2022-12-03T04:15:01.710Z,9.70
2022-12-03T04:16:01.303Z,9.23
2022-12-03T04:17:01.309Z,10.63
2022-12-03T04:18:01.289Z,8.00
2022-12-03T04:19:00.945Z,8.50
2022-12-03T04:20:00.941Z,8.13
2022-12-03T04:21:01.252Z,13.20
2022-12-03T04:22:01.220Z,9.90
2022-12-03T04:23:02.170Z,8.40
2022-12-03T04:24:01.808Z,10.17
2022-12-03T04:25:01.557Z,10.30
2022-12-03T04:26:01.723Z,11.07
2022-12-03T04:27:00.916Z,10.63
2022-12-03T04:28:00.917Z,9.07
2022-12-03T04:29:00.944Z,8.87
2022-12-03T04:30:01.268Z,8.53
2022-12-03T04:31:01.662Z,10.57
2022-12-03T04:32:01.536Z,9.33
2022-12-03T04:33:01.230Z,10.37
2022-12-03T04:34:01.522Z,9.53
2022-12-03T04:35:01.182Z,10.77
2022-12-03T04:36:01.281Z,11.80
2022-12-03T04:37:01.508Z,14.53
2022-12-03T04:38:00.914Z,13.67
2022-12-03T04:39:00.954Z,11.73
2022-12-03T04:40:01.231Z,11.30
2022-12-03T04:41:00.991Z,11.73
2022-12-03T04:42:02.023Z,10.30
2022-12-03T04:43:00.936Z,11.20
2022-12-03T04:44:01.362Z,12.43
2022-12-03T04:45:01.155Z,11.60
2022-12-03T04:46:01.078Z,10.07
2022-12-03T04:47:01.866Z,10.63
2022-12-03T04:48:00.918Z,11.07
2022-12-03T04:49:00.938Z,12.17
2022-12-03T04:50:00.940Z,10.70
2022-12-03T04:51:01.219Z,9.60
2022-12-03T04:52:01.368Z,9.93
2022-12-03T04:53:01.718Z,12.57
2022-12-03T04:54:01.308Z,11.83
2022-12-03T04:55:01.227Z,12.40
2022-12-03T04:56:01.179Z,10.73
2022-12-03T04:57:01.786Z,11.77
2022-12-03T04:58:00.953Z,10.97
2022-12-03T04:59:01.244Z,11.03
2022-12-03T05:00:00.968Z,11.23
2022-12-03T05:01:00.986Z,10.97
2022-12-03T05:02:01.514Z,11.70
2022-12-03T05:03:01.042Z,12.07
2022-12-03T05:04:00.954Z,11.43
2022-12-03T05:05:01.253Z,12.27
2022-12-03T05:06:00.923Z,10.83
2022-12-03T05:07:01.794Z,10.50
2022-12-03T05:08:01.073Z,10.07
2022-12-03T05:09:01.316Z,12.20
2022-12-03T05:10:01.264Z,11.13
2022-12-03T05:11:01.222Z,10.90
2022-12-03T05:12:01.242Z,10.83
2022-12-03T05:13:01.247Z,9.90
2022-12-03T05:14:01.564Z,10.37
2022-12-03T05:15:01.341Z,10.70
2022-12-03T05:16:01.252Z,9.13
2022-12-03T05:17:01.451Z,9.53
2022-12-03T05:18:01.312Z,12.37
2022-12-03T05:19:01.346Z,10.63
2022-12-03T05:20:01.276Z,9.60
2022-12-03T05:21:00.978Z,11.07
2022-12-03T05:22:01.226Z,12.30
2022-12-03T05:23:00.927Z,11.23
2022-12-03T05:24:02.022Z,10.90
2022-12-03T05:25:00.948Z,10.97
2022-12-03T05:26:01.443Z,9.30
2022-12-03T05:27:00.926Z,9.83
2022-12-03T05:28:01.461Z,10.90
2022-12-03T05:29:01.614Z,9.23
2022-12-03T05:30:00.959Z,10.03
2022-12-03T05:31:01.620Z,10.23
2022-12-03T05:32:01.400Z,10.63
2022-12-03T05:33:01.243Z,10.87
2022-12-03T05:34:01.151Z,8.77
2022-12-03T05:35:01.226Z,10.27
2022-12-03T05:36:01.665Z,11.90
2022-12-03T05:37:01.248Z,12.07
2022-12-03T05:38:01.229Z,13.10
2022-12-03T05:39:01.213Z,12.50
2022-12-03T05:40:01.450Z,11.60
2022-12-03T05:41:01.240Z,12.23
2022-12-03T05:42:01.582Z,13.80
2022-12-03T05:43:01.270Z,14.00
2022-12-03T05:44:00.919Z,13.80
2022-12-03T05:45:01.231Z,14.90
2022-12-03T05:46:01.118Z,17.27
2022-12-03T05:47:01.579Z,18.37
2022-12-03T05:48:02.595Z,16.27
2022-12-03T05:49:00.976Z,16.60
2022-12-03T05:50:00.969Z,17.60
2022-12-03T05:51:01.053Z,18.30
2022-12-03T05:52:01.457Z,14.80
2022-12-03T05:53:01.262Z,15.97
2022-12-03T05:54:00.936Z,13.87
2022-12-03T05:55:00.991Z,14.77
2022-12-03T05:56:01.291Z,16.23
2022-12-03T05:57:01.251Z,17.03
2022-12-03T05:58:01.223Z,15.90
2022-12-03T05:59:01.010Z,14.30
2022-12-03T06:00:01.271Z,12.73
2022-12-03T06:01:00.988Z,14.27
2022-12-03T06:02:01.253Z,15.07
2022-12-03T06:03:01.093Z,12.97
2022-12-03T06:04:01.355Z,15.73
2022-12-03T06:05:00.939Z,13.80
2022-12-03T06:06:01.115Z,11.60
2022-12-03T06:07:01.380Z,15.30
2022-12-03T06:08:01.337Z,15.20
2022-12-03T06:09:01.243Z,12.60
2022-12-03T06:10:01.257Z,13.37
2022-12-03T06:11:00.919Z,13.03
2022-12-03T06:12:01.254Z,17.37
2022-12-03T06:13:01.587Z,13.80
2022-12-03T06:14:01.050Z,19.30
2022-12-03T06:15:01.552Z,19.27
2022-12-03T06:16:01.262Z,18.53
2022-12-03T06:17:01.518Z,19.00
2022-12-03T06:18:00.937Z,17.87
2022-12-03T06:19:01.217Z,14.30
2022-12-03T06:20:00.974Z,12.50
2022-12-03T06:21:00.993Z,14.40
2022-12-03T06:22:00.933Z,15.73
2022-12-03T06:23:00.921Z,14.67
2022-12-03T06:24:01.320Z,13.13
2022-12-03T06:25:06.615Z,12.37
2022-12-03T06:26:01.238Z,12.57
2022-12-03T06:27:01.248Z,14.07
2022-12-03T06:28:00.910Z,12.47
2022-12-03T06:29:00.940Z,11.40
2022-12-03T06:30:01.322Z,14.57
2022-12-03T06:31:00.969Z,12.33
2022-12-03T06:32:01.355Z,14.07
2022-12-03T06:33:01.380Z,16.40
2022-12-03T06:34:01.228Z,14.80
2022-12-03T06:35:01.794Z,12.80
2022-12-03T06:36:01.236Z,13.60
2022-12-03T06:37:01.260Z,11.80
2022-12-03T06:38:01.138Z,14.00
2022-12-03T06:39:01.283Z,14.50
2022-12-03T06:40:01.263Z,14.30
2022-12-03T06:41:01.024Z,16.00
2022-12-03T06:42:01.073Z,14.10
2022-12-03T06:43:00.949Z,14.33
2022-12-03T06:44:01.696Z,12.87
2022-12-03T06:45:01.359Z,14.40
2022-12-03T06:46:01.221Z,13.10
2022-12-03T06:47:01.108Z,14.23
2022-12-03T06:48:01.228Z,16.50
2022-12-03T06:49:00.966Z,21.30
2022-12-03T06:50:00.911Z,20.17
2022-12-03T06:51:01.438Z,21.93
2022-12-03T06:52:01.253Z,21.77
2022-12-03T06:53:01.256Z,20.67
2022-12-03T06:54:00.972Z,19.27
2022-12-03T06:55:01.296Z,18.93
2022-12-03T06:56:01.210Z,17.93
2022-12-03T06:57:01.131Z,18.67
2022-12-03T06:58:00.942Z,18.17
2022-12-03T06:59:01.582Z,19.17
2022-12-03T07:00:01.263Z,16.53
2022-12-03T07:01:01.242Z,16.37
2022-12-03T07:02:00.980Z,14.30
2022-12-03T07:03:00.990Z,16.70
2022-12-03T07:04:01.295Z,19.70
2022-12-03T07:05:01.564Z,17.77
2022-12-03T07:06:01.270Z,19.77
2022-12-03T07:07:00.923Z,23.13
2022-12-03T07:08:01.579Z,22.07
2022-12-03T07:09:01.239Z,21.47
2022-12-03T07:10:01.588Z,19.63
2022-12-03T07:11:01.585Z,20.30
2022-12-03T07:12:01.651Z,20.27
2022-12-03T07:13:00.936Z,17.37
2022-12-03T07:14:05.382Z,17.27
2022-12-03T07:15:01.253Z,16.90
2022-12-03T07:16:01.062Z,17.23
2022-12-03T07:17:01.224Z,16.97
2022-12-03T07:18:01.607Z,17.03
2022-12-03T07:19:01.376Z,16.57
2022-12-03T07:20:01.369Z,17.60
2022-12-03T07:21:00.919Z,14.87
2022-12-03T07:22:01.964Z,19.27
2022-12-03T07:23:00.950Z,17.03
2022-12-03T07:24:01.687Z,19.37
2022-12-03T07:25:01.082Z,17.37
2022-12-03T07:26:01.228Z,16.23
2022-12-03T07:27:01.340Z,16.90
2022-12-03T07:28:00.953Z,16.33
2022-12-03T07:29:01.463Z,23.13
2022-12-03T07:30:01.598Z,24.17
2022-12-03T07:31:01.338Z,18.67
2022-12-03T07:32:01.259Z,21.53
2022-12-03T07:33:01.489Z,20.20
2022-12-03T07:34:01.686Z,15.67
2022-12-03T07:35:01.281Z,14.37
2022-12-03T07:36:00.932Z,15.37
2022-12-03T07:37:01.252Z,15.87
2022-12-03T07:38:01.209Z,15.27
2022-12-03T07:39:01.347Z,12.67
2022-12-03T07:40:01.436Z,13.43
2022-12-03T07:41:01.207Z,13.07
2022-12-03T07:42:01.653Z,13.60
2022-12-03T07:43:00.986Z,14.40
2022-12-03T07:44:01.277Z,18.20
2022-12-03T07:45:01.266Z,14.93
2022-12-03T07:46:01.335Z,13.20
2022-12-03T07:47:00.968Z,12.33
2022-12-03T07:48:01.244Z,12.47
2022-12-03T07:49:00.912Z,12.27
2022-12-03T07:50:01.205Z,13.40
2022-12-03T07:51:01.615Z,11.60
2022-12-03T07:52:01.177Z,10.37
2022-12-03T07:53:01.245Z,11.90
2022-12-03T07:54:01.214Z,11.37
2022-12-03T07:55:00.923Z,12.53
2022-12-03T07:56:01.238Z,11.37
2022-12-03T07:57:01.836Z,10.70
2022-12-03T07:58:01.532Z,13.23
2022-12-03T07:59:01.222Z,12.03
2022-12-03T08:00:00.945Z,10.40
2022-12-03T08:01:01.074Z,10.27
2022-12-03T08:02:01.039Z,10.37
2022-12-03T08:03:01.463Z,10.30
2022-12-03T08:04:01.106Z,12.57
2022-12-03T08:05:01.248Z,10.37
2022-12-03T08:06:00.928Z,10.77
2022-12-03T08:07:00.953Z,10.33
2022-12-03T08:08:00.979Z,12.80
2022-12-03T08:09:01.245Z,8.40
2022-12-03T08:10:01.230Z,9.70
2022-12-03T08:11:02.018Z,9.73
2022-12-03T08:12:05.487Z,10.60
2022-12-03T08:13:05.756Z,9.60
2022-12-03T08:14:07.045Z,8.73
2022-12-03T08:15:01.414Z,9.53
2022-12-03T08:16:11.417Z,9.10
2022-12-03T08:17:01.232Z,10.57
2022-12-03T08:18:11.260Z,9.17
2022-12-03T08:19:04.839Z,10.17
2022-12-03T08:20:01.364Z,11.60
2022-12-03T08:21:01.227Z,9.90
2022-12-03T08:22:01.742Z,9.13
2022-12-03T08:23:09.986Z,12.37
2022-12-03T08:24:11.515Z,9.27
2022-12-03T08:25:01.300Z,9.03
2022-12-03T08:26:05.346Z,8.90
2022-12-03T08:27:01.507Z,11.50
2022-12-03T08:28:10.742Z,10.80
2022-12-03T08:29:01.444Z,10.77
2022-12-03T08:30:03.751Z,10.83
2022-12-03T08:31:11.321Z,9.63
2022-12-03T08:32:01.027Z,9.83
2022-12-03T08:33:05.745Z,10.87
2022-12-03T08:34:15.084Z,8.60
2022-12-03T08:35:01.682Z,11.27
2022-12-03T08:36:10.311Z,11.27
2022-12-03T08:37:08.541Z,8.77
2022-12-03T08:38:08.768Z,8.90
2022-12-03T08:39:12.806Z,9.47
2022-12-03T08:40:00.963Z,10.13
2022-12-03T08:41:01.232Z,9.83
2022-12-03T08:42:13.838Z,9.67
2022-12-03T08:43:01.580Z,10.20
2022-12-03T08:44:08.758Z,11.53
2022-12-03T08:45:20.395Z,8.90
2022-12-03T08:46:01.281Z,12.00
2022-12-03T08:47:10.320Z,12.27
2022-12-03T08:48:05.145Z,9.90
2022-12-03T08:49:01.229Z,10.37
2022-12-03T08:50:17.514Z,10.60
2022-12-03T08:51:05.706Z,8.73
2022-12-03T08:52:10.409Z,9.40
2022-12-03T08:53:20.450Z,10.50
2022-12-03T08:54:11.133Z,10.23
2022-12-03T08:55:19.821Z,11.37
2022-12-03T08:56:03.675Z,12.33
2022-12-03T08:57:05.898Z,12.37
2022-12-03T08:58:17.334Z,12.83
2022-12-03T08:59:20.403Z,9.80
2022-12-03T09:00:18.133Z,9.37
2022-12-03T09:01:15.136Z,9.00
2022-12-03T09:02:01.261Z,10.77
2022-12-03T09:03:01.208Z,10.10
2022-12-03T09:04:18.613Z,10.83
2022-12-03T09:05:14.954Z,10.07
2022-12-03T09:06:01.270Z,9.03
2022-12-03T09:07:00.989Z,9.80
2022-12-03T09:08:01.045Z,10.47
2022-12-03T09:09:05.281Z,10.20
2022-12-03T09:10:00.905Z,10.03
2022-12-03T09:11:01.215Z,11.90
2022-12-03T09:12:01.314Z,13.13
2022-12-03T09:13:01.253Z,12.30
2022-12-03T09:14:01.223Z,13.87
2022-12-03T09:15:01.300Z,11.07
2022-12-03T09:16:01.257Z,10.53
2022-12-03T09:17:01.282Z,10.90
2022-12-03T09:18:01.230Z,11.30
2022-12-03T09:19:01.258Z,10.23
2022-12-03T09:20:01.055Z,10.83
2022-12-03T09:21:00.941Z,11.17
2022-12-03T09:22:00.924Z,10.70
2022-12-03T09:23:01.255Z,10.60
2022-12-03T09:24:01.250Z,7.50
2022-12-03T09:25:00.911Z,11.37
2022-12-03T09:26:01.225Z,13.77
2022-12-03T09:27:01.226Z,13.20
2022-12-03T09:28:01.433Z,13.20
2022-12-03T09:29:00.921Z,10.13
2022-12-03T09:30:01.288Z,9.97
2022-12-03T09:31:01.426Z,10.97
2022-12-03T09:32:00.985Z,13.63
2022-12-03T09:33:01.246Z,15.10
2022-12-03T09:34:01.896Z,11.70
2022-12-03T09:35:01.297Z,11.80
2022-12-03T09:36:01.224Z,10.77
2022-12-03T09:37:01.413Z,31.87
2022-12-03T09:38:00.939Z,16.73
2022-12-03T09:39:01.350Z,16.30
2022-12-03T09:40:00.962Z,10.73
2022-12-03T09:41:01.373Z,8.70
2022-12-03T09:42:02.161Z,8.93
2022-12-03T09:43:01.413Z,11.30
2022-12-03T09:44:04.383Z,8.57
2022-12-03T09:45:02.186Z,10.53
2022-12-03T09:46:02.038Z,12.03
2022-12-03T09:47:02.147Z,8.03
2022-12-03T09:48:02.150Z,10.40
2022-12-03T09:49:01.937Z,11.27
2022-12-03T09:50:00.981Z,11.37
2022-12-03T09:51:01.054Z,11.93
2022-12-03T09:52:03.415Z,12.33
2022-12-03T09:53:03.033Z,9.37
2022-12-03T09:54:03.391Z,8.80
2022-12-03T09:55:07.283Z,9.47
2022-12-03T09:56:01.256Z,13.23
2022-12-03T09:57:02.895Z,10.73
2022-12-03T09:58:01.818Z,15.00
2022-12-03T09:59:02.021Z,12.13
2022-12-03T10:00:01.279Z,11.90
2022-12-03T10:01:01.346Z,13.03
2022-12-03T10:02:02.781Z,10.33
2022-12-03T10:03:03.806Z,9.40
2022-12-03T10:04:01.595Z,10.80
2022-12-03T10:05:01.104Z,12.03
2022-12-03T10:06:00.976Z,11.70
2022-12-03T10:07:00.938Z,11.23
2022-12-03T10:08:04.658Z,11.57
2022-12-03T10:09:01.026Z,8.60
2022-12-03T10:10:01.751Z,10.90
2022-12-03T10:11:01.256Z,10.03
2022-12-03T10:12:01.284Z,10.33
2022-12-03T10:13:02.290Z,10.30
2022-12-03T10:14:01.101Z,10.03
2022-12-03T10:15:01.474Z,9.30
2022-12-03T10:16:01.274Z,10.47
2022-12-03T10:17:01.450Z,10.00
2022-12-03T10:18:14.978Z,9.73
2022-12-03T10:19:01.267Z,9.93
2022-12-03T10:20:01.727Z,10.13
2022-12-03T10:21:01.025Z,11.33
2022-12-03T10:22:01.497Z,9.73
2022-12-03T10:23:00.922Z,9.03
2022-12-03T10:24:20.113Z,10.53
2022-12-03T10:25:07.491Z,10.80
2022-12-03T10:26:03.031Z,9.53
2022-12-03T10:27:03.521Z,9.10
2022-12-03T10:28:02.627Z,9.00
2022-12-03T10:29:00.930Z,9.80
2022-12-03T10:30:04.222Z,9.37
2022-12-03T10:31:04.454Z,9.30
2022-12-03T10:32:04.047Z,10.83
2022-12-03T10:33:14.437Z,8.17
2022-12-03T10:34:00.926Z,10.30
2022-12-03T10:35:09.795Z,9.60
2022-12-03T10:36:15.254Z,8.40
2022-12-03T10:37:10.460Z,10.73
2022-12-03T10:38:03.111Z,9.17
2022-12-03T10:39:09.122Z,9.53
2022-12-03T10:40:03.369Z,9.30
2022-12-03T10:41:20.408Z,10.13
2022-12-03T10:42:13.818Z,10.80
2022-12-03T10:43:12.765Z,12.83
2022-12-03T10:44:11.777Z,10.60
2022-12-03T10:45:13.440Z,9.73
2022-12-03T10:46:11.058Z,10.13
2022-12-03T10:47:06.186Z,9.07
2022-12-03T10:48:04.092Z,10.23
2022-12-03T10:49:13.499Z,9.53
2022-12-03T10:50:04.061Z,10.27
2022-12-03T10:51:03.890Z,9.23
2022-12-03T10:52:01.500Z,8.03
2022-12-03T10:53:01.438Z,13.80
2022-12-03T10:54:01.554Z,11.47
2022-12-03T10:55:01.315Z,11.60
2022-12-03T10:56:05.073Z,10.97
2022-12-03T10:57:01.656Z,9.23
2022-12-03T10:58:01.374Z,8.23
2022-12-03T10:59:01.505Z,8.47
2022-12-03T11:00:00.936Z,9.27
2022-12-03T11:01:05.240Z,9.90
2022-12-03T11:02:03.399Z,9.23
2022-12-03T11:03:01.303Z,9.17
2022-12-03T11:04:04.185Z,7.90
2022-12-03T11:05:00.935Z,9.60
2022-12-03T11:06:02.346Z,9.20
2022-12-03T11:07:02.548Z,9.33
2022-12-03T11:08:01.324Z,10.27
2022-12-03T11:09:06.926Z,10.50
2022-12-03T11:10:01.051Z,10.00
2022-12-03T11:11:04.896Z,9.00
2022-12-03T11:12:04.217Z,9.97
2022-12-03T11:13:20.399Z,11.30
2022-12-03T11:14:03.105Z,9.70
2022-12-03T11:15:04.734Z,11.07
2022-12-03T11:16:03.666Z,10.97
2022-12-03T11:17:06.901Z,9.13
2022-12-03T11:18:01.267Z,11.73
2022-12-03T11:19:02.040Z,10.70
2022-12-03T11:20:00.931Z,9.73
2022-12-03T11:21:04.109Z,10.87
2022-12-03T11:22:16.719Z,10.20
2022-12-03T11:23:01.258Z,11.50
2022-12-03T11:24:04.433Z,14.27
2022-12-03T11:25:20.401Z,12.80
2022-12-03T11:26:01.314Z,11.73
2022-12-03T11:27:17.408Z,10.60
2022-12-03T11:28:20.406Z,7.23
2022-12-03T11:29:01.259Z,6.40
2022-12-03T11:30:01.273Z,10.87
2022-12-03T11:31:04.739Z,11.27
2022-12-03T11:32:01.050Z,9.57
2022-12-03T11:33:01.016Z,8.87
2022-12-03T11:34:20.459Z,13.03
2022-12-03T11:35:00.938Z,8.73
2022-12-03T11:36:13.666Z,6.47
2022-12-03T11:37:20.403Z,5.17
2022-12-03T11:38:20.408Z,6.70
2022-12-03T11:39:01.320Z,7.17
2022-12-03T11:40:12.486Z,5.50
2022-12-03T11:41:09.450Z,9.27
2022-12-03T11:42:20.401Z,7.60
2022-12-03T11:43:01.973Z,6.70
2022-12-03T11:44:12.945Z,7.80
2022-12-03T11:45:16.275Z,5.53
2022-12-03T11:46:08.629Z,5.17
2022-12-03T11:47:11.693Z,5.70
2022-12-03T11:48:09.214Z,6.73
2022-12-03T11:49:01.556Z,4.90
2022-12-03T11:50:02.110Z,6.47
2022-12-03T11:51:00.980Z,6.57
2022-12-03T11:52:11.283Z,4.80
2022-12-03T11:53:12.123Z,7.13
2022-12-03T11:54:01.459Z,5.50
2022-12-03T11:55:04.601Z,5.37
2022-12-03T11:56:04.586Z,4.97
2022-12-03T11:57:02.036Z,7.37
2022-12-03T11:58:03.691Z,5.37
2022-12-03T11:59:03.770Z,5.93
2022-12-03T12:00:08.759Z,7.47
2022-12-03T12:01:03.583Z,5.97
2022-12-03T12:02:18.527Z,5.67
2022-12-03T12:03:00.960Z,5.67
2022-12-03T12:04:01.263Z,5.13
2022-12-03T12:05:20.408Z,5.73
2022-12-03T12:06:02.529Z,5.90
2022-12-03T12:07:01.906Z,5.90
2022-12-03T12:08:02.365Z,5.63
2022-12-03T12:09:01.231Z,5.73
2022-12-03T12:10:01.172Z,6.47
2022-12-03T12:11:01.510Z,4.93
2022-12-03T12:12:19.145Z,6.23
2022-12-03T12:13:01.234Z,5.30
2022-12-03T12:14:02.644Z,5.77
2022-12-03T12:15:20.545Z,6.33
2022-12-03T12:16:02.628Z,5.10
2022-12-03T12:17:00.927Z,5.93
2022-12-03T12:18:20.391Z,5.77
2022-12-03T12:19:20.398Z,5.83
2022-12-03T12:20:20.030Z,4.07
2022-12-03T12:21:20.409Z,5.90
2022-12-03T12:22:12.888Z,5.83
2022-12-03T12:23:20.272Z,5.67
2022-12-03T12:24:20.399Z,4.00
2022-12-03T12:25:02.556Z,4.67
2022-12-03T12:26:06.116Z,6.93
2022-12-03T12:27:04.282Z,5.63
2022-12-03T12:28:01.696Z,5.77
2022-12-03T12:29:01.199Z,3.67
2022-12-03T12:30:03.676Z,4.27
2022-12-03T12:31:01.391Z,6.47
2022-12-03T12:32:12.303Z,6.17
2022-12-03T12:33:11.127Z,3.80
2022-12-03T12:34:01.002Z,4.83
2022-12-03T12:35:17.165Z,6.83
2022-12-03T12:36:07.337Z,4.43
2022-12-03T12:37:01.937Z,5.43
2022-12-03T12:38:13.714Z,4.97
2022-12-03T12:39:00.927Z,3.67
2022-12-03T12:40:06.351Z,3.80
2022-12-03T12:41:06.594Z,4.33
2022-12-03T12:42:02.399Z,3.37
2022-12-03T12:43:14.240Z,5.80
2022-12-03T12:44:01.276Z,4.03
2022-12-03T12:45:11.978Z,3.43
2022-12-03T12:46:39.092Z,4.77
2022-12-03T12:47:10.331Z,5.63
2022-12-03T12:48:14.131Z,3.20
2022-12-03T12:49:00.994Z,4.50
2022-12-03T12:50:07.655Z,4.40
2022-12-03T12:51:10.021Z,4.87
2022-12-03T12:52:01.303Z,4.73
2022-12-03T12:53:07.779Z,4.47
2022-12-03T12:54:01.716Z,4.43
2022-12-03T12:55:05.055Z,4.33
2022-12-03T12:56:06.677Z,5.33
2022-12-03T12:57:09.932Z,5.00
2022-12-03T12:58:06.985Z,3.40
2022-12-03T12:59:12.214Z,5.07
2022-12-03T13:00:03.864Z,4.33
2022-12-03T13:01:10.549Z,5.17
2022-12-03T13:02:04.528Z,4.97
2022-12-03T13:03:03.311Z,4.60
2022-12-03T13:04:01.205Z,4.07
2022-12-03T13:05:02.082Z,4.27
2022-12-03T13:06:01.932Z,5.27
2022-12-03T13:07:01.241Z,2.53